Time;durP1;ratioP1;P1;durP2;ratioP2;P2;SDS_P1;SDS_P2;PMS_P1;PMS_P2;Temp;Humidity;BMP_temperature;BMP_pressure;BME280_temperature;BME280_humidity;BME280_pressure;Samples;Min_cycle;Max_cycle;Signal;HPM_P1;HPM_P2
2022/03/22 00:00:10;;;;;;;42.85;26.25;;;;;;;;;;5090945;28;20057;-76
2022/03/22 00:02:36;;;;;;;37.58;23.73;;;;;;;;;;5068606;28;20538;-76
2022/03/22 00:05:03;;;;;;;41.40;26.20;;;;;;;;;;5066579;28;20043;-76
2022/03/22 00:07:30;;;;;;;35.65;24.75;;;;;;;;;;5067410;28;20037;-76
2022/03/22 00:09:56;;;;;;;39.38;25.02;;;;;;;;;;5082780;28;20036;-76
2022/03/22 00:12:23;;;;;;;37.05;25.02;;;;;;;;;;5071915;28;20032;-76
2022/03/22 00:14:49;;;;;;;40.15;24.70;;;;;;;;;;5055362;28;20444;-76
2022/03/22 00:17:15;;;;;;;38.90;25.20;;;;;;;;;;5069629;28;20033;-75
2022/03/22 00:19:41;;;;;;;36.67;24.60;;;;;;;;;;5074721;28;20098;-75
2022/03/22 00:22:11;;;;;;;39.78;24.83;;;;;;;;;;5069061;28;20045;-75
2022/03/22 00:24:38;;;;;;;42.15;25.73;;;;;;;;;;5076950;28;20043;-76
2022/03/22 00:27:04;;;;;;;40.97;24.98;;;;;;;;;;5070173;28;20028;-76
2022/03/22 00:29:30;;;;;;;37.80;23.90;;;;;;;;;;5068248;28;20033;-76
2022/03/22 00:31:56;;;;;;;40.55;26.17;;;;;;;;;;5067915;28;20456;-76
2022/03/22 00:34:23;;;;;;;43.83;25.20;;;;;;;;;;5051604;28;20079;-76
2022/03/22 00:36:50;;;;;;;43.50;26.35;;;;;;;;;;5058915;28;20107;-74
2022/03/22 00:39:16;;;;;;;37.15;24.27;;;;;;;;;;5067988;28;20422;-76
2022/03/22 00:41:42;;;;;;;40.67;24.63;;;;;;;;;;5068708;28;20021;-76
2022/03/22 00:44:09;;;;;;;44.75;25.02;;;;;;;;;;5070521;28;20048;-76
2022/03/22 00:46:36;;;;;;;39.72;25.25;;;;;;;;;;5069261;28;20491;-77
2022/03/22 00:49:03;;;;;;;50.10;27.08;;;;;;;;;;5068675;28;20038;-75
2022/03/22 00:51:30;;;;;;;40.08;25.10;;;;;;;;;;5067298;28;20028;-75
2022/03/22 00:53:59;;;;;;;38.88;26.30;;;;;;;;;;5065007;28;20033;-75
2022/03/22 00:56:25;;;;;;;43.30;26.08;;;;;;;;;;5072351;28;20070;-75
2022/03/22 01:00:01;;;;;;;39.80;26.02;;;;;;;;;;5073937;28;20400;-75
2022/03/22 01:01:38;;;;;;;38.70;24.83;;;;;;;;;;5077530;28;20036;-74
2022/03/22 01:04:04;;;;;;;38.58;25.40;;;;;;;;;;5075032;28;20036;-74
2022/03/22 01:06:31;;;;;;;41.03;25.63;;;;;;;;;;5074162;28;20365;-75
2022/03/22 01:08:57;;;;;;;40.88;26.42;;;;;;;;;;5073417;28;20052;-74
2022/03/22 01:11:23;;;;;;;38.20;25.75;;;;;;;;;;5067208;28;20465;-74
2022/03/22 01:13:49;;;;;;;40.83;26.45;;;;;;;;;;5067709;28;20460;-74
2022/03/22 01:16:16;;;;;;;36.55;24.38;;;;;;;;;;5073421;28;20035;-74
2022/03/22 01:18:42;;;;;;;44.80;26.92;;;;;;;;;;5072013;28;20020;-74
2022/03/22 01:21:10;;;;;;;40.35;25.40;;;;;;;;;;5073754;28;20037;-74
2022/03/22 01:23:36;;;;;;;39.75;25.65;;;;;;;;;;5079952;28;20039;-74
2022/03/22 01:26:02;;;;;;;44.30;27.83;;;;;;;;;;5057530;28;20029;-75
2022/03/22 01:28:29;;;;;;;39.67;25.92;;;;;;;;;;5078480;28;20062;-75
2022/03/22 01:30:55;;;;;;;44.13;27.08;;;;;;;;;;5079897;28;20033;-75
2022/03/22 01:33:21;;;;;;;37.75;26.50;;;;;;;;;;5079048;28;20699;-75
2022/03/22 01:35:47;;;;;;;41.03;27.63;;;;;;;;;;5054453;28;20036;-74
2022/03/22 01:38:13;;;;;;;39.67;27.00;;;;;;;;;;5063603;28;20031;-74
2022/03/22 01:40:39;;;;;;;49.35;28.20;;;;;;;;;;5087879;28;20020;-75
2022/03/22 01:43:06;;;;;;;47.85;28.20;;;;;;;;;;5087371;28;20091;-75
2022/03/22 01:45:33;;;;;;;40.80;27.40;;;;;;;;;;5085475;28;20017;-75
2022/03/22 01:48:00;;;;;;;40.70;27.38;;;;;;;;;;5064549;28;20039;-75
2022/03/22 01:50:26;;;;;;;44.25;25.95;;;;;;;;;;5080678;28;20484;-75
2022/03/22 01:52:52;;;;;;;44.92;26.58;;;;;;;;;;5116222;27;20048;-75
2022/03/22 01:55:20;;;;;;;46.28;28.35;;;;;;;;;;5084109;28;20039;-75
2022/03/22 01:57:46;;;;;;;46.97;28.23;;;;;;;;;;5076503;28;20020;-75
2022/03/22 02:00:15;;;;;;;42.67;29.13;;;;;;;;;;5073204;28;20063;-75
2022/03/22 02:08:13;;;;;;;47.20;29.45;;;;;;;;;;5071051;28;20048;-75
2022/03/22 02:10:39;;;;;;;43.47;27.92;;;;;;;;;;5072786;28;20024;-75
2022/03/22 02:13:06;;;;;;;49.55;30.50;;;;;;;;;;5072902;28;20086;-75
2022/03/22 02:15:32;;;;;;;45.55;29.88;;;;;;;;;;5077313;28;20064;-75
2022/03/22 02:17:59;;;;;;;48.63;28.63;;;;;;;;;;5071851;28;20106;-75
2022/03/22 02:20:25;;;;;;;43.22;28.65;;;;;;;;;;5057605;28;20035;-75
2022/03/22 02:22:52;;;;;;;43.20;28.23;;;;;;;;;;5071617;28;20044;-75
2022/03/22 02:25:19;;;;;;;40.78;29.00;;;;;;;;;;5071442;28;20020;-75
2022/03/22 02:27:52;;;;;;;44.38;28.33;;;;;;;;;;5077842;28;20025;-75
2022/03/22 02:30:18;;;;;;;50.35;28.27;;;;;;;;;;5070497;28;20063;-75
2022/03/22 02:32:54;;;;;;;44.63;27.60;;;;;;;;;;5069677;28;20024;-76
2022/03/22 02:35:20;;;;;;;48.58;28.13;;;;;;;;;;5067980;28;20499;-76
2022/03/22 02:37:47;;;;;;;45.25;28.13;;;;;;;;;;5078769;28;20074;-75
2022/03/22 02:40:14;;;;;;;40.20;29.13;;;;;;;;;;5073534;28;20086;-75
2022/03/22 02:42:44;;;;;;;43.88;28.75;;;;;;;;;;5071516;28;20036;-75
2022/03/22 02:45:11;;;;;;;40.92;26.23;;;;;;;;;;5070245;28;20115;-75
2022/03/22 02:47:38;;;;;;;41.55;26.35;;;;;;;;;;5080446;28;20401;-75
2022/03/22 02:50:05;;;;;;;45.90;28.58;;;;;;;;;;5070839;28;20032;-75
2022/03/22 02:52:31;;;;;;;47.42;27.35;;;;;;;;;;5059863;28;20033;-75
2022/03/22 02:54:57;;;;;;;40.30;25.88;;;;;;;;;;5056356;28;20052;-75
2022/03/22 02:57:23;;;;;;;41.00;25.90;;;;;;;;;;5068921;28;20054;-75
2022/03/22 02:59:49;;;;;;;38.50;24.55;;;;;;;;;;5067848;28;20111;-75
2022/03/22 03:02:16;;;;;;;40.30;27.17;;;;;;;;;;5050623;28;20039;-75
2022/03/22 03:04:42;;;;;;;40.10;24.65;;;;;;;;;;5088389;28;20051;-74
2022/03/22 03:07:08;;;;;;;45.28;27.23;;;;;;;;;;5086417;28;20067;-74
2022/03/22 03:09:34;;;;;;;39.40;26.13;;;;;;;;;;5070584;28;20089;-75
2022/03/22 03:12:00;;;;;;;38.75;25.30;;;;;;;;;;5069090;28;20475;-75
2022/03/22 03:14:39;;;;;;;35.90;24.00;;;;;;;;;;5062243;28;20040;-75
2022/03/22 03:17:10;;;;;;;43.63;26.08;;;;;;;;;;5070557;28;20115;-75
2022/03/22 03:19:36;;;;;;;38.90;24.15;;;;;;;;;;5068187;28;20027;-75
2022/03/22 03:22:03;;;;;;;42.15;25.65;;;;;;;;;;5052981;28;20036;-75
2022/03/22 03:24:30;;;;;;;38.38;25.92;;;;;;;;;;5065364;28;20401;-75
2022/03/22 03:26:56;;;;;;;38.35;26.17;;;;;;;;;;5052528;28;20237;-75
2022/03/22 03:29:22;;;;;;;36.65;23.60;;;;;;;;;;5066471;28;20453;-75
2022/03/22 03:31:49;;;;;;;43.78;25.80;;;;;;;;;;5070890;28;20033;-75
2022/03/22 03:34:15;;;;;;;40.42;25.88;;;;;;;;;;5068587;28;20419;-75
2022/03/22 03:36:41;;;;;;;37.95;25.17;;;;;;;;;;5069783;28;20123;-75
2022/03/22 03:39:08;;;;;;;38.88;25.10;;;;;;;;;;5065681;28;20027;-75
2022/03/22 03:41:53;;;;;;;38.83;25.05;;;;;;;;;;5071453;28;20058;-75
2022/03/22 03:47:07;;;;;;;38.25;24.73;;;;;;;;;;5086227;28;20054;-75
2022/03/22 03:49:34;;;;;;;42.13;25.98;;;;;;;;;;5077042;28;21749;-75
2022/03/22 03:52:00;;;;;;;38.65;24.05;;;;;;;;;;5057552;28;20033;-75
2022/03/22 03:54:27;;;;;;;38.20;24.75;;;;;;;;;;5084629;28;20040;-74
2022/03/22 03:56:53;;;;;;;39.95;24.95;;;;;;;;;;5090644;28;20111;-74
2022/03/22 03:59:19;;;;;;;35.75;24.33;;;;;;;;;;5087790;28;20024;-75
2022/03/22 04:01:45;;;;;;;42.50;23.67;;;;;;;;;;5095331;28;20033;-75
2022/03/22 04:04:11;;;;;;;35.80;23.02;;;;;;;;;;5094563;28;20038;-75
2022/03/22 04:06:37;;;;;;;43.28;25.10;;;;;;;;;;5090658;28;20048;-75
2022/03/22 04:09:03;;;;;;;40.72;24.58;;;;;;;;;;5090167;28;20024;-75
2022/03/22 04:11:29;;;;;;;37.30;24.40;;;;;;;;;;5102273;28;20502;-75
2022/03/22 04:13:55;;;;;;;41.63;25.40;;;;;;;;;;5101470;28;20040;-75
2022/03/22 04:16:22;;;;;;;40.63;26.23;;;;;;;;;;5096595;28;20020;-75
2022/03/22 04:18:50;;;;;;;43.83;27.95;;;;;;;;;;5088158;28;20524;-75
2022/03/22 04:21:16;;;;;;;45.05;28.15;;;;;;;;;;5087785;28;20435;-75
2022/03/22 04:23:42;;;;;;;49.30;27.83;;;;;;;;;;5104207;28;20043;-75
2022/03/22 04:26:08;;;;;;;45.60;26.65;;;;;;;;;;5112313;28;20027;-75
2022/03/22 04:34:04;;;;;;;40.67;26.20;;;;;;;;;;5107675;28;20035;-76
2022/03/22 04:36:30;;;;;;;42.33;28.00;;;;;;;;;;5094065;28;20459;-75
2022/03/22 04:38:57;;;;;;;42.92;26.77;;;;;;;;;;5080945;28;20493;-75
2022/03/22 04:41:23;;;;;;;42.95;26.70;;;;;;;;;;5089915;28;20730;-75
2022/03/22 04:43:50;;;;;;;42.42;28.10;;;;;;;;;;5093406;28;20044;-75
2022/03/22 04:46:18;;;;;;;43.03;26.58;;;;;;;;;;5103020;28;20024;-75
2022/03/22 04:48:47;;;;;;;45.58;27.75;;;;;;;;;;5094475;28;20029;-76
2022/03/22 04:56:43;;;;;;;43.30;28.38;;;;;;;;;;5099566;28;20039;-75
2022/03/22 04:59:09;;;;;;;46.40;29.85;;;;;;;;;;5107603;28;20039;-75
2022/03/22 05:01:35;;;;;;;42.38;28.50;;;;;;;;;;5100503;28;20036;-75
2022/03/22 05:04:01;;;;;;;44.78;29.15;;;;;;;;;;5084633;28;20044;-75
2022/03/22 05:06:28;;;;;;;41.85;27.48;;;;;;;;;;5095799;28;20032;-76
2022/03/22 05:08:55;;;;;;;47.17;28.95;;;;;;;;;;5097253;28;20510;-76
2022/03/22 05:11:22;;;;;;;43.35;28.00;;;;;;;;;;5090990;28;20468;-75
2022/03/22 05:13:49;;;;;;;44.00;29.13;;;;;;;;;;5107352;28;20028;-75
2022/03/22 05:16:15;;;;;;;46.05;28.85;;;;;;;;;;5096345;28;20033;-75
2022/03/22 05:18:42;;;;;;;49.13;28.98;;;;;;;;;;5093845;28;20024;-74
2022/03/22 05:21:08;;;;;;;42.40;28.63;;;;;;;;;;5092906;28;20028;-75
2022/03/22 05:23:34;;;;;;;41.95;26.50;;;;;;;;;;5070919;28;20036;-75
2022/03/22 05:26:01;;;;;;;39.25;28.13;;;;;;;;;;5087314;28;20035;-75
2022/03/22 05:28:27;;;;;;;42.95;27.55;;;;;;;;;;5099925;28;20530;-75
2022/03/22 05:30:53;;;;;;;44.53;27.35;;;;;;;;;;5093600;28;20028;-75
2022/03/22 05:33:19;;;;;;;42.70;27.55;;;;;;;;;;5077337;28;20051;-75
2022/03/22 05:35:46;;;;;;;47.97;29.55;;;;;;;;;;5105064;28;20367;-76
2022/03/22 05:38:12;;;;;;;44.67;27.38;;;;;;;;;;5091539;28;20118;-76
2022/03/22 05:40:39;;;;;;;48.65;27.75;;;;;;;;;;5093513;28;20036;-75
2022/03/22 05:43:05;;;;;;;48.45;28.13;;;;;;;;;;5093208;28;20052;-75
2022/03/22 05:45:32;;;;;;;44.65;28.90;;;;;;;;;;5089130;28;20028;-75
2022/03/22 05:48:01;;;;;;;45.90;29.20;;;;;;;;;;5090101;28;20383;-75
2022/03/22 05:50:27;;;;;;;46.67;28.30;;;;;;;;;;5094842;28;20036;-73
2022/03/22 05:52:54;;;;;;;45.42;26.85;;;;;;;;;;5086227;28;20032;-75
2022/03/22 05:55:20;;;;;;;43.83;28.08;;;;;;;;;;5079358;28;20021;-75
2022/03/22 05:57:46;;;;;;;42.10;27.30;;;;;;;;;;5098838;28;20074;-77
2022/03/22 06:00:13;;;;;;;42.60;28.52;;;;;;;;;;5067961;28;20032;-77
2022/03/22 06:02:39;;;;;;;40.03;27.52;;;;;;;;;;5081829;28;20028;-77
2022/03/22 06:05:08;;;;;;;45.90;27.38;;;;;;;;;;5072318;28;20113;-78
2022/03/22 06:07:34;;;;;;;43.30;27.40;;;;;;;;;;5083462;28;20470;-77
2022/03/22 06:10:00;;;;;;;42.97;28.48;;;;;;;;;;5099368;28;20032;-76
2022/03/22 06:12:33;;;;;;;45.65;27.08;;;;;;;;;;5095257;28;20032;-75
2022/03/22 06:15:14;;;;;;;298.80;163.85;;;;;;;;;;5084762;28;20024;-73
2022/03/22 06:17:41;;;;;;;52.70;33.47;;;;;;;;;;5086566;28;20048;-73
2022/03/22 06:20:07;;;;;;;58.10;30.10;;;;;;;;;;5095720;28;20035;-74
2022/03/22 06:22:33;;;;;;;49.92;28.77;;;;;;;;;;5094199;28;20055;-74
2022/03/22 06:24:59;;;;;;;43.03;27.58;;;;;;;;;;5090155;28;20024;-74
2022/03/22 06:27:25;;;;;;;45.25;28.60;;;;;;;;;;5092500;28;20047;-74
2022/03/22 06:29:51;;;;;;;48.45;30.55;;;;;;;;;;5082357;28;20032;-74
2022/03/22 06:32:17;;;;;;;43.60;28.45;;;;;;;;;;5078301;28;20032;-74
2022/03/22 06:34:44;;;;;;;46.97;29.48;;;;;;;;;;5077573;28;20051;-74
2022/03/22 06:37:11;;;;;;;47.72;29.17;;;;;;;;;;5087295;28;20043;-73
2022/03/22 06:39:37;;;;;;;51.83;29.95;;;;;;;;;;5093153;28;20047;-72
2022/03/22 06:42:03;;;;;;;43.53;28.05;;;;;;;;;;5092457;28;20040;-71
2022/03/22 06:44:30;;;;;;;40.90;27.98;;;;;;;;;;5090847;28;20056;-72
2022/03/22 06:46:56;;;;;;;44.58;28.92;;;;;;;;;;5094975;28;20023;-73
2022/03/22 06:49:23;;;;;;;50.63;28.65;;;;;;;;;;5095559;28;20078;-74
2022/03/22 06:51:50;;;;;;;47.78;31.02;;;;;;;;;;5099025;28;20016;-74
2022/03/22 06:54:16;;;;;;;47.42;29.90;;;;;;;;;;5097854;28;20075;-74
2022/03/22 06:56:42;;;;;;;50.35;32.45;;;;;;;;;;5076881;28;20036;-73
2022/03/22 06:59:08;;;;;;;50.08;32.22;;;;;;;;;;5090306;28;20949;-73
2022/03/22 07:01:34;;;;;;;43.47;28.40;;;;;;;;;;5090278;28;20060;-73
2022/03/22 07:04:00;;;;;;;44.13;29.35;;;;;;;;;;5083516;28;20048;-72
2022/03/22 07:06:26;;;;;;;41.95;29.65;;;;;;;;;;5091199;28;20032;-73
2022/03/22 07:08:54;;;;;;;47.00;29.77;;;;;;;;;;5088798;28;20039;-73
2022/03/22 07:14:04;;;;;;;49.92;29.70;;;;;;;;;;5099727;28;20093;-73
2022/03/22 07:16:30;;;;;;;45.78;29.00;;;;;;;;;;5092760;28;20043;-72
2022/03/22 07:18:56;;;;;;;48.70;30.45;;;;;;;;;;5082802;28;20456;-76
2022/03/22 07:21:23;;;;;;;43.13;30.05;;;;;;;;;;5083326;28;20107;-72
2022/03/22 07:23:49;;;;;;;66.50;40.33;;;;;;;;;;5092401;28;20036;-72
2022/03/22 07:26:16;;;;;;;57.40;34.05;;;;;;;;;;5089969;28;20441;-73
2022/03/22 07:28:43;;;;;;;46.90;29.58;;;;;;;;;;5092498;28;20476;-73
2022/03/22 07:31:09;;;;;;;46.55;29.88;;;;;;;;;;5093966;28;20117;-72
2022/03/22 07:33:37;;;;;;;44.55;28.58;;;;;;;;;;5092146;28;20028;-73
2022/03/22 07:36:03;;;;;;;42.25;29.77;;;;;;;;;;5085675;28;20033;-72
2022/03/22 07:38:29;;;;;;;39.28;26.95;;;;;;;;;;5079050;28;20032;-74
2022/03/22 07:40:55;;;;;;;40.17;26.50;;;;;;;;;;5071561;28;20075;-74
2022/03/22 07:43:21;;;;;;;48.13;29.00;;;;;;;;;;5105889;28;20101;-73
2022/03/22 07:45:47;;;;;;;41.25;26.50;;;;;;;;;;5094643;28;20487;-73
2022/03/22 07:48:14;;;;;;;42.67;27.77;;;;;;;;;;5092927;28;20468;-73
2022/03/22 07:53:25;;;;;;;36.80;25.30;;;;;;;;;;5098344;28;20131;-73
2022/03/22 07:55:51;;;;;;;41.40;26.55;;;;;;;;;;5091898;28;20028;-73
2022/03/22 07:58:17;;;;;;;190.07;114.45;;;;;;;;;;5085731;28;20028;-72
2022/03/22 08:00:45;;;;;;;50.50;31.65;;;;;;;;;;5094016;28;20383;-72
2022/03/22 08:03:15;;;;;;;45.33;28.88;;;;;;;;;;5075107;28;20040;-73
2022/03/22 08:05:42;;;;;;;37.67;25.55;;;;;;;;;;5085667;28;20043;-72
2022/03/22 08:08:08;;;;;;;40.05;26.85;;;;;;;;;;5115250;28;20471;-72
2022/03/22 08:10:34;;;;;;;39.38;27.23;;;;;;;;;;5091921;28;20150;-72
2022/03/22 08:13:00;;;;;;;41.95;26.85;;;;;;;;;;5102753;28;20038;-72
2022/03/22 08:15:26;;;;;;;36.05;24.25;;;;;;;;;;5104253;28;20028;-72
2022/03/22 08:17:52;;;;;;;39.78;26.50;;;;;;;;;;5090289;28;20040;-72
2022/03/22 08:20:18;;;;;;;41.50;26.85;;;;;;;;;;5080320;28;20485;-72
2022/03/22 08:23:06;;;;;;;41.15;26.30;;;;;;;;;;5114615;28;20447;-72
2022/03/22 08:25:32;;;;;;;37.38;26.13;;;;;;;;;;5097823;28;20036;-72
2022/03/22 08:28:00;;;;;;;44.88;27.00;;;;;;;;;;5090493;28;20030;-71
2022/03/22 08:30:27;;;;;;;40.33;27.30;;;;;;;;;;5123288;27;20028;-71
2022/03/22 08:32:54;;;;;;;37.40;25.80;;;;;;;;;;5081939;28;20117;-71
2022/03/22 08:35:21;;;;;;;59.80;34.08;;;;;;;;;;5092787;28;20375;-72
2022/03/22 08:37:48;;;;;;;44.85;29.90;;;;;;;;;;5093484;28;20024;-71
2022/03/22 08:40:14;;;;;;;40.13;25.17;;;;;;;;;;5098178;28;20036;-72
2022/03/22 08:42:45;;;;;;;38.50;25.65;;;;;;;;;;5086588;28;20383;-73
2022/03/22 08:45:12;;;;;;;43.35;27.13;;;;;;;;;;5086558;28;20021;-74
2022/03/22 08:47:40;;;;;;;34.92;24.30;;;;;;;;;;5074235;28;20062;-74
2022/03/22 08:50:08;;;;;;;39.63;28.27;;;;;;;;;;5086088;28;20032;-74
2022/03/22 08:52:35;;;;;;;33.85;24.50;;;;;;;;;;5092330;28;20024;-74
2022/03/22 08:55:01;;;;;;;34.65;22.45;;;;;;;;;;5092682;28;20016;-74
2022/03/22 08:57:27;;;;;;;32.40;23.90;;;;;;;;;;5075606;28;20033;-74
2022/03/22 08:59:54;;;;;;;37.03;24.33;;;;;;;;;;5082764;28;20464;-74
2022/03/22 09:02:20;;;;;;;36.10;25.08;;;;;;;;;;5095003;28;20388;-74
2022/03/22 09:07:30;;;;;;;31.77;23.95;;;;;;;;;;5091366;28;20090;-74
2022/03/22 09:09:56;;;;;;;39.42;23.60;;;;;;;;;;5074790;28;20388;-74
2022/03/22 09:12:23;;;;;;;35.60;24.83;;;;;;;;;;5093557;28;20023;-74
2022/03/22 09:14:53;;;;;;;33.42;23.88;;;;;;;;;;5099145;28;20111;-77
2022/03/22 09:17:19;;;;;;;34.78;25.23;;;;;;;;;;5090759;28;20144;-74
2022/03/22 09:19:45;;;;;;;32.80;23.20;;;;;;;;;;5087947;28;20036;-75
2022/03/22 09:22:11;;;;;;;31.95;23.60;;;;;;;;;;5107470;27;20536;-75
2022/03/22 09:24:38;;;;;;;32.85;23.75;;;;;;;;;;5100974;28;20031;-75
2022/03/22 09:27:04;;;;;;;34.33;23.67;;;;;;;;;;5081413;28;20033;-75
2022/03/22 09:29:30;;;;;;;36.92;23.52;;;;;;;;;;5072608;28;20365;-75
2022/03/22 09:31:56;;;;;;;29.65;22.23;;;;;;;;;;5088186;28;20111;-75
2022/03/22 09:34:25;;;;;;;31.88;23.95;;;;;;;;;;5082702;28;20036;-75
2022/03/22 09:36:52;;;;;;;28.60;22.80;;;;;;;;;;5082710;28;20028;-75
2022/03/22 09:39:19;;;;;;;29.73;24.10;;;;;;;;;;5092785;28;20101;-75
2022/03/22 09:41:48;;;;;;;28.88;21.45;;;;;;;;;;5086198;28;20395;-75
2022/03/22 09:44:18;;;;;;;33.13;22.35;;;;;;;;;;5081021;28;20078;-75
2022/03/22 09:46:49;;;;;;;30.33;21.23;;;;;;;;;;5078312;28;20036;-75
2022/03/22 09:49:18;;;;;;;29.38;22.00;;;;;;;;;;5082170;28;20025;-75
2022/03/22 09:51:45;;;;;;;28.65;22.00;;;;;;;;;;5084766;28;20472;-75
2022/03/22 09:54:12;;;;;;;32.25;23.40;;;;;;;;;;5087553;28;20037;-75
2022/03/22 09:56:38;;;;;;;30.33;20.98;;;;;;;;;;5092278;28;20401;-75
2022/03/22 09:59:06;;;;;;;29.08;21.38;;;;;;;;;;5087375;28;20126;-74
2022/03/22 10:01:33;;;;;;;33.25;22.02;;;;;;;;;;5083666;28;20479;-75
2022/03/22 10:04:12;;;;;;;27.63;20.48;;;;;;;;;;5092401;28;20399;-75
2022/03/22 10:06:40;;;;;;;28.17;20.85;;;;;;;;;;5086083;28;20032;-74
2022/03/22 10:09:06;;;;;;;27.40;21.83;;;;;;;;;;5099367;28;20031;-75
2022/03/22 10:11:39;;;;;;;29.50;20.98;;;;;;;;;;5085825;28;20028;-74
2022/03/22 10:14:08;;;;;;;27.73;21.67;;;;;;;;;;5077319;28;20025;-74
2022/03/22 10:16:45;;;;;;;30.55;19.80;;;;;;;;;;5098051;28;20036;-74
2022/03/22 10:19:28;;;;;;;28.05;20.05;;;;;;;;;;5090997;28;20024;-74
2022/03/22 10:21:55;;;;;;;24.95;18.90;;;;;;;;;;5094793;27;20098;-74
2022/03/22 10:24:21;;;;;;;27.23;19.90;;;;;;;;;;5091703;28;20020;-75
2022/03/22 10:26:47;;;;;;;30.65;21.65;;;;;;;;;;5092478;28;20049;-74
2022/03/22 10:29:14;;;;;;;30.80;18.83;;;;;;;;;;5092737;28;20376;-74
2022/03/22 10:31:41;;;;;;;29.77;19.40;;;;;;;;;;5089990;28;20023;-74
2022/03/22 10:34:08;;;;;;;27.95;19.90;;;;;;;;;;5086217;28;20400;-75
2022/03/22 10:36:37;;;;;;;28.05;16.98;;;;;;;;;;5090685;28;20098;-75
2022/03/22 10:39:13;;;;;;;24.67;17.88;;;;;;;;;;5109771;28;20032;-75
2022/03/22 10:41:40;;;;;;;23.55;15.50;;;;;;;;;;5103565;28;20379;-75
2022/03/22 10:44:07;;;;;;;20.63;16.52;;;;;;;;;;5083398;28;20075;-75
2022/03/22 10:46:35;;;;;;;27.15;18.63;;;;;;;;;;5083424;28;20025;-74
2022/03/22 10:49:09;;;;;;;24.83;17.60;;;;;;;;;;5083226;28;20392;-75
2022/03/22 10:51:36;;;;;;;28.83;19.95;;;;;;;;;;5080956;28;20044;-75
2022/03/22 10:54:03;;;;;;;24.38;18.15;;;;;;;;;;5091060;28;20036;-75
2022/03/22 10:56:30;;;;;;;30.70;19.63;;;;;;;;;;5090841;28;20034;-75
2022/03/22 10:58:58;;;;;;;30.27;18.95;;;;;;;;;;5090892;28;20032;-75
2022/03/22 11:01:24;;;;;;;27.92;19.92;;;;;;;;;;5091422;28;20024;-75
2022/03/22 11:03:50;;;;;;;27.10;19.63;;;;;;;;;;5090531;28;20069;-75
2022/03/22 11:06:17;;;;;;;26.45;19.95;;;;;;;;;;5093930;28;20024;-75
2022/03/22 11:08:44;;;;;;;25.88;18.60;;;;;;;;;;5089989;28;20028;-75
2022/03/22 11:11:11;;;;;;;25.25;19.58;;;;;;;;;;5089140;28;20075;-75
2022/03/22 11:13:37;;;;;;;26.77;19.58;;;;;;;;;;5103514;28;20043;-74
2022/03/22 11:16:03;;;;;;;27.75;17.75;;;;;;;;;;5097899;28;20028;-74
2022/03/22 11:18:30;;;;;;;26.20;18.73;;;;;;;;;;5086570;28;20114;-75
2022/03/22 11:20:57;;;;;;;20.23;18.00;;;;;;;;;;5090622;28;20061;-74
2022/03/22 11:23:25;;;;;;;27.88;17.92;;;;;;;;;;5090902;28;20093;-74
2022/03/22 11:25:51;;;;;;;23.80;17.67;;;;;;;;;;5077220;28;20089;-74
2022/03/22 11:28:21;;;;;;;23.88;17.00;;;;;;;;;;5090354;28;20028;-74
2022/03/22 11:30:48;;;;;;;26.15;17.60;;;;;;;;;;5086582;28;20039;-74
2022/03/22 11:36:02;;;;;;;25.70;17.17;;;;;;;;;;5111260;28;20073;-74
2022/03/22 11:38:48;;;;;;;34.38;18.45;;;;;;;;;;5091235;28;20528;-74
2022/03/22 11:44:10;;;;;;;23.77;16.75;;;;;;;;;;5089917;28;20150;-74
2022/03/22 11:46:37;;;;;;;20.33;15.98;;;;;;;;;;5090777;28;20048;-74
2022/03/22 11:49:17;;;;;;;28.17;15.95;;;;;;;;;;5081385;28;20495;-74
2022/03/22 11:51:49;;;;;;;28.23;16.27;;;;;;;;;;5069997;28;20020;-74
2022/03/22 11:54:15;;;;;;;24.98;16.30;;;;;;;;;;5084759;28;20046;-74
2022/03/22 11:56:48;;;;;;;20.40;14.75;;;;;;;;;;5076691;28;20024;-74
2022/03/22 11:59:16;;;;;;;22.48;15.38;;;;;;;;;;5083518;28;20103;-74
2022/03/22 12:01:43;;;;;;;24.38;16.63;;;;;;;;;;5072710;28;20032;-74
2022/03/22 12:04:16;;;;;;;22.85;15.32;;;;;;;;;;5091111;28;20405;-74
2022/03/22 12:06:43;;;;;;;27.45;16.58;;;;;;;;;;5086478;28;20051;-75
2022/03/22 12:09:09;;;;;;;23.23;15.57;;;;;;;;;;5091704;28;20021;-74
2022/03/22 12:11:36;;;;;;;39.45;17.17;;;;;;;;;;5089834;28;20040;-75
2022/03/22 12:14:03;;;;;;;26.48;15.30;;;;;;;;;;5091323;28;20074;-74
2022/03/22 12:16:29;;;;;;;22.20;15.95;;;;;;;;;;5082853;28;20493;-74
2022/03/22 12:18:59;;;;;;;25.65;16.80;;;;;;;;;;5094183;28;20035;-74
2022/03/22 12:21:26;;;;;;;23.42;16.77;;;;;;;;;;5072899;28;20103;-74
2022/03/22 12:23:52;;;;;;;21.95;16.45;;;;;;;;;;5089673;28;20065;-74
2022/03/22 12:26:18;;;;;;;23.00;16.42;;;;;;;;;;5070621;28;20056;-74
2022/03/22 12:28:48;;;;;;;27.33;17.10;;;;;;;;;;5090777;28;20147;-74
2022/03/22 12:31:14;;;;;;;32.30;17.70;;;;;;;;;;5093756;28;20409;-74
2022/03/22 12:33:40;;;;;;;23.08;15.05;;;;;;;;;;5072805;28;20036;-74
2022/03/22 12:36:06;;;;;;;20.83;15.07;;;;;;;;;;5071118;28;20051;-75
2022/03/22 12:38:33;;;;;;;23.90;17.25;;;;;;;;;;5084750;28;20028;-75
2022/03/22 12:40:59;;;;;;;23.85;17.45;;;;;;;;;;5080787;28;20024;-75
2022/03/22 12:43:25;;;;;;;25.92;17.35;;;;;;;;;;5085043;28;20079;-74
2022/03/22 12:45:51;;;;;;;21.75;16.35;;;;;;;;;;5081918;28;20039;-75
2022/03/22 12:48:19;;;;;;;22.55;16.83;;;;;;;;;;5090776;28;20061;-74
2022/03/22 12:50:45;;;;;;;27.98;17.95;;;;;;;;;;5076334;28;20677;-74
2022/03/22 12:53:11;;;;;;;23.88;16.27;;;;;;;;;;5088166;28;20040;-74
2022/03/22 12:55:40;;;;;;;28.27;18.25;;;;;;;;;;5088072;28;20031;-74
2022/03/22 12:58:06;;;;;;;26.13;17.63;;;;;;;;;;5084666;28;20105;-74
2022/03/22 13:00:33;;;;;;;27.65;18.25;;;;;;;;;;5091320;28;20403;-74
2022/03/22 13:03:06;;;;;;;28.20;17.40;;;;;;;;;;5085123;28;20032;-74
2022/03/22 13:05:33;;;;;;;24.98;18.08;;;;;;;;;;5092810;28;20031;-74
2022/03/22 13:07:59;;;;;;;26.90;17.17;;;;;;;;;;5091264;28;20101;-74
2022/03/22 13:13:20;;;;;;;23.60;16.30;;;;;;;;;;5083729;28;20903;-73
2022/03/22 13:15:52;;;;;;;24.95;15.43;;;;;;;;;;5086842;28;20396;-75
2022/03/22 13:18:18;;;;;;;26.27;16.75;;;;;;;;;;5083468;28;20043;-74
2022/03/22 13:20:44;;;;;;;28.33;18.20;;;;;;;;;;5074110;28;20024;-74
2022/03/22 13:23:14;;;;;;;28.55;17.70;;;;;;;;;;5089018;28;20119;-74
2022/03/22 13:25:42;;;;;;;27.02;15.88;;;;;;;;;;5088414;28;20073;-74
2022/03/22 13:28:11;;;;;;;23.73;14.13;;;;;;;;;;5091214;28;20382;-74
2022/03/22 13:30:38;;;;;;;24.63;14.70;;;;;;;;;;5083817;28;20023;-73
2022/03/22 13:33:16;;;;;;;22.27;14.30;;;;;;;;;;5089283;28;20031;-74
2022/03/22 13:35:57;;;;;;;22.10;14.30;;;;;;;;;;5093334;28;20467;-74
2022/03/22 13:38:24;;;;;;;28.17;13.23;;;;;;;;;;5089089;28;20429;-74
2022/03/22 13:40:54;;;;;;;24.48;14.95;;;;;;;;;;5084059;28;20099;-74
2022/03/22 13:43:20;;;;;;;23.55;14.15;;;;;;;;;;5075111;28;20067;-74
2022/03/22 13:45:51;;;;;;;23.00;16.38;;;;;;;;;;5079064;28;20525;-74
2022/03/22 13:48:17;;;;;;;21.30;14.30;;;;;;;;;;5084958;28;20105;-74
2022/03/22 13:50:46;;;;;;;24.80;16.20;;;;;;;;;;5078190;28;20044;-74
2022/03/22 13:53:13;;;;;;;25.75;16.00;;;;;;;;;;5083148;28;20039;-74
2022/03/22 13:55:50;;;;;;;22.17;14.65;;;;;;;;;;5092184;28;20085;-74
2022/03/22 13:58:16;;;;;;;24.33;15.55;;;;;;;;;;5090022;28;20481;-74
2022/03/22 14:00:43;;;;;;;25.02;15.73;;;;;;;;;;5087590;28;20024;-74
2022/03/22 14:03:10;;;;;;;25.48;15.55;;;;;;;;;;5092113;28;20501;-73
2022/03/22 14:05:37;;;;;;;28.67;16.75;;;;;;;;;;5092993;28;20055;-74
2022/03/22 14:08:04;;;;;;;23.85;15.05;;;;;;;;;;5091086;28;20021;-74
2022/03/22 14:10:30;;;;;;;21.13;14.48;;;;;;;;;;5081870;28;20036;-74
2022/03/22 14:12:57;;;;;;;25.92;16.48;;;;;;;;;;5085634;28;20382;-73
2022/03/22 14:15:23;;;;;;;31.38;22.98;;;;;;;;;;5091504;28;21888;-75
2022/03/22 14:17:51;;;;;;;23.38;16.58;;;;;;;;;;5088356;28;20459;-76
2022/03/22 14:20:17;;;;;;;28.17;17.55;;;;;;;;;;5077979;28;20032;-76
2022/03/22 14:22:48;;;;;;;24.27;16.58;;;;;;;;;;5063287;28;20020;-74
2022/03/22 14:25:15;;;;;;;25.30;15.75;;;;;;;;;;5062430;28;20028;-75
2022/03/22 14:27:42;;;;;;;26.58;15.98;;;;;;;;;;5093229;28;20142;-75
2022/03/22 14:30:14;;;;;;;25.27;15.10;;;;;;;;;;5090057;28;20046;-74
2022/03/22 14:32:40;;;;;;;25.48;15.38;;;;;;;;;;5082490;28;20464;-74
2022/03/22 14:37:51;;;;;;;26.20;15.02;;;;;;;;;;5084515;28;20042;-75
2022/03/22 14:40:18;;;;;;;24.75;14.10;;;;;;;;;;5096382;28;20054;-75
2022/03/22 14:42:44;;;;;;;22.95;14.65;;;;;;;;;;5093690;28;20093;-74
2022/03/22 14:45:11;;;;;;;25.58;14.20;;;;;;;;;;5094755;28;20874;-75
2022/03/22 14:47:38;;;;;;;22.45;14.02;;;;;;;;;;5090986;28;20122;-75
2022/03/22 14:50:05;;;;;;;21.25;13.18;;;;;;;;;;5091322;28;20115;-74
2022/03/22 14:55:18;;;;;;;33.60;21.50;;;;;;;;;;5089285;28;20108;-74
2022/03/22 15:00:30;;;;;;;24.92;15.15;;;;;;;;;;5091552;28;20061;-74